Time;durP1;ratioP1;P1;durP2;ratioP2;P2;SDS_P1;SDS_P2;PMS_P1;PMS_P2;Temp;Humidity;BMP_temperature;BMP_pressure;BME280_temperature;BME280_humidity;BME280_pressure;Samples;Min_cycle;Max_cycle;Signal;HPM_P1;HPM_P2
2023/08/11 00:01:00;;;;;;;;;;;;;;;;;;;;;
2023/08/11 00:03:58;;;;;;;1.35;1.05;;;17.40;99.90;;;;;;4871767;29;20045;-96
2023/08/11 00:07:00;;;;;;;2.42;1.88;;;17.40;99.90;;;;;;4840779;29;20050;-95
2023/08/11 00:10:08;;;;;;;1.73;1.20;;;17.30;99.90;;;;;;4848037;29;20049;-96
2023/08/11 00:12:42;;;;;;;1.48;1.25;;;17.40;99.90;;;;;;4841874;29;20052;-95
2023/08/11 00:15:21;;;;;;;2.22;1.60;;;17.40;99.90;;;;;;4838800;29;20783;-96
2023/08/11 00:21:03;;;;;;;2.17;1.40;;;17.30;99.90;;;;;;4852317;29;20481;-94
2023/08/11 00:23:46;;;;;;;2.10;1.30;;;17.30;99.90;;;;;;4831652;29;20045;-96
2023/08/11 00:26:21;;;;;;;3.00;1.13;;;17.30;99.90;;;;;;4843589;29;20550;-96
2023/08/11 00:29:24;;;;;;;2.65;1.40;;;17.20;99.90;;;;;;4835257;29;20041;-96
2023/08/11 00:32:07;;;;;;;1.73;1.20;;;16.90;99.90;;;;;;4841785;29;20045;-96
2023/08/11 00:35:04;;;;;;;2.53;1.50;;;17.10;99.90;;;;;;4808869;29;20450;-96
2023/08/11 00:40:44;;;;;;;4.40;2.17;;;16.90;99.90;;;;;;4847585;29;20049;-96
2023/08/11 00:43:16;;;;;;;3.13;2.07;;;17.00;99.90;;;;;;4832003;29;20049;-96
2023/08/11 00:46:42;;;;;;;2.75;1.65;;;16.70;99.90;;;;;;4835823;29;20557;-96
2023/08/11 00:49:54;;;;;;;2.58;1.80;;;16.60;99.90;;;;;;4827190;29;20058;-96
2023/08/11 00:53:07;;;;;;;2.03;1.50;;;16.80;99.90;;;;;;4849062;29;20053;-96
2023/08/11 00:55:58;;;;;;;;;;;;;;;;;;;;;
2023/08/11 01:02:53;;;;;;;2.78;1.70;;;16.30;99.90;;;;;;4822717;29;20053;-96
2023/08/11 01:06:22;;;;;;;2.17;1.70;;;16.40;99.90;;;;;;4842420;29;20053;-96
2023/08/11 01:10:03;;;;;;;2.70;1.67;;;16.30;99.90;;;;;;4841430;29;20060;-96
2023/08/11 01:17:15;;;;;;;3.63;1.85;;;16.10;99.90;;;;;;4839863;29;20047;-96
2023/08/11 01:20:24;;;;;;;2.15;1.88;;;16.20;99.90;;;;;;4793179;29;20051;-96
2023/08/11 01:27:56;;;;;;;;;;;;;;;;;;;;;
2023/08/11 01:31:59;;;;;;;2.78;2.53;;;15.90;99.90;;;;;;4789220;30;20149;-96
2023/08/11 01:39:49;;;;;;;;;;;;;;;;;;;;;
2023/08/11 01:58:56;;;;;;;3.75;2.85;;;16.00;99.90;;;;;;4688878;30;20054;-96
2023/08/11 02:02:31;;;;;;;4.10;2.50;;;15.90;99.90;;;;;;4680614;30;20085;-96
2023/08/11 02:13:05;;;;;;;4.07;3.28;;;16.10;99.90;;;;;;4635379;30;20045;-96
2023/08/11 02:16:33;;;;;;;3.50;2.90;;;15.80;99.90;;;;;;4664257;30;20050;-96
2023/08/11 02:31:47;;;;;;;4.85;4.35;;;15.80;99.90;;;;;;4669383;30;20050;-96
2023/08/11 02:35:04;;;;;;;4.47;3.67;;;15.10;99.90;;;;;;4677119;30;20520;-96
2023/08/11 02:42:05;;;;;;;;;;;;;;;;;;;;;
2023/08/11 02:45:47;;;;;;;5.20;4.50;;;15.10;99.90;;;;;;4606846;31;20081;-96
2023/08/11 03:05:04;;;;;;;7.15;6.18;;;15.50;99.90;;;;;;5098378;23;19924;-94
2023/08/11 03:08:02;;;;;;;7.40;6.35;;;16.80;99.90;;;;;;4829999;29;20056;-96
2023/08/11 03:11:02;;;;;;;6.80;6.18;;;15.30;99.90;;;;;;4848416;29;20416;-96
2023/08/11 03:13:57;;;;;;;;;;;;;;;;;;;;;
2023/08/11 03:17:15;;;;;;;6.07;5.47;;;15.20;99.90;;;;;;4859619;29;20053;-96
2023/08/11 03:20:12;;;;;;;6.72;6.00;;;15.00;99.90;;;;;;4864603;29;20049;-96
2023/08/11 03:23:33;;;;;;;8.55;5.63;;;15.30;99.90;;;;;;4853540;29;20057;-96
2023/08/11 03:26:11;;;;;;;7.28;5.72;;;15.20;99.90;;;;;;4871522;29;20133;-96
2023/08/11 03:39:48;;;;;;;6.72;5.43;;;15.00;99.90;;;;;;4851353;29;20056;-96
2023/08/11 03:43:22;;;;;;;;;;;;;;;;;;;;;
2023/08/11 03:47:00;;;;;;;;;;;;;;;;;;;;;
2023/08/11 03:49:57;;;;;;;;;;;;;;;;;;;;;
2023/08/11 03:53:24;;;;;;;6.47;5.88;;;14.90;99.90;;;;;;4858458;29;20128;-96
2023/08/11 03:56:29;;;;;;;5.93;5.40;;;15.20;99.90;;;;;;4842557;29;20054;-96
2023/08/11 03:59:57;;;;;;;8.95;6.18;;;15.30;99.90;;;;;;4846694;29;20061;-96
2023/08/11 04:03:27;;;;;;;;;;;;;;;;;;;;;
2023/08/11 04:07:23;;;;;;;7.88;6.00;;;15.30;99.90;;;;;;4795853;30;20086;-96
2023/08/11 04:20:16;;;;;;;7.70;4.80;;;15.40;99.90;;;;;;4784807;30;20087;-96
2023/08/11 04:23:00;;;;;;;6.32;5.28;;;15.00;99.90;;;;;;4786058;30;20047;-96
2023/08/11 04:25:38;;;;;;;5.43;4.85;;;15.40;99.90;;;;;;4761561;30;20059;-96
2023/08/11 04:28:24;;;;;;;5.93;5.30;;;15.50;99.90;;;;;;4793483;29;20110;-96
2023/08/11 04:34:20;;;;;;;6.00;4.75;;;15.40;99.90;;;;;;4734245;30;20059;-96
2023/08/11 04:37:04;;;;;;;5.05;4.45;;;15.80;99.90;;;;;;4743703;30;20044;-95
2023/08/11 04:39:48;;;;;;;5.18;4.57;;;15.50;99.90;;;;;;4754769;30;20052;-96
2023/08/11 04:42:24;;;;;;;5.55;4.30;;;15.50;99.90;;;;;;4759076;30;20056;-96
2023/08/11 04:45:40;;;;;;;5.38;4.28;;;15.60;99.90;;;;;;4737923;30;20135;-96
2023/08/11 04:52:04;;;;;;;5.60;4.30;;;15.70;99.90;;;;;;4792561;29;20047;-96
2023/08/11 04:54:59;;;;;;;5.10;4.00;;;15.80;99.90;;;;;;4773019;29;20156;-96
2023/08/11 04:57:51;;;;;;;5.20;4.18;;;16.00;99.90;;;;;;4783358;29;20051;-96
2023/08/11 05:00:44;;;;;;;5.05;4.05;;;16.00;99.90;;;;;;4793965;30;20233;-96
2023/08/11 05:04:30;;;;;;;4.82;4.10;;;16.10;99.90;;;;;;4780883;30;20047;-96
2023/08/11 05:07:56;;;;;;;4.38;3.58;;;16.60;99.90;;;;;;4800925;29;20045;-96
2023/08/11 05:14:09;;;;;;;5.70;3.88;;;17.40;99.90;;;;;;4781820;29;20099;-96
2023/08/11 05:17:24;;;;;;;4.82;3.42;;;17.80;99.90;;;;;;4779657;30;20051;-96
2023/08/11 05:20:26;;;;;;;5.47;3.10;;;18.10;99.90;;;;;;4765479;30;20073;-96
2023/08/11 05:23:33;;;;;;;4.95;3.20;;;18.40;99.90;;;;;;4858663;29;20057;-96
2023/08/11 05:26:11;;;;;;;4.45;3.67;;;18.60;99.90;;;;;;4856275;29;20076;-96
2023/08/11 05:29:32;;;;;;;4.55;2.83;;;18.50;99.90;;;;;;4865427;29;20113;-96
2023/08/11 05:35:49;;;;;;;3.60;3.15;;;18.40;99.90;;;;;;4871360;29;20101;-96
2023/08/11 05:38:59;;;;;;;3.50;2.60;;;19.10;99.90;;;;;;4855533;29;20047;-96
2023/08/11 05:41:52;;;;;;;3.83;2.80;;;20.40;99.90;;;;;;4865843;29;20082;-96
2023/08/11 05:45:24;;;;;;;4.28;3.00;;;21.50;99.90;;;;;;4851366;29;20060;-96
2023/08/11 05:48:22;;;;;;;3.05;2.50;;;22.40;99.90;;;;;;4861926;29;20041;-96
2023/08/11 05:51:48;;;;;;;3.05;2.35;;;23.20;99.90;;;;;;4850975;29;20073;-96
2023/08/11 05:55:01;;;;;;;;;;;;;;;;;;;;;
2023/08/11 05:58:39;;;;;;;2.50;2.05;;;24.80;99.90;;;;;;4844430;29;20050;-96
2023/08/11 06:05:56;;;;;;;3.13;2.38;;;25.90;99.90;;;;;;4770289;30;20004;-96
2023/08/11 06:08:58;;;;;;;3.72;2.10;;;26.40;99.90;;;;;;4784942;30;20055;-96
2023/08/11 06:12:52;;;;;;;2.67;2.00;;;26.90;99.90;;;;;;4736022;30;20055;-96
2023/08/11 06:16:01;;;;;;;2.28;1.70;;;27.00;99.90;;;;;;4756928;30;20146;-96
2023/08/11 06:19:38;;;;;;;;;;;;;;;;;;;;;
2023/08/11 06:26:41;;;;;;;2.22;1.40;;;27.70;99.90;;;;;;4692983;30;20072;-96
2023/08/11 06:29:25;;;;;;;3.92;1.90;;;28.10;99.90;;;;;;4689109;30;20685;-96
2023/08/11 06:32:21;;;;;;;5.00;1.70;;;28.50;99.90;;;;;;4713932;30;20061;-96
2023/08/11 06:35:11;;;;;;;2.15;1.40;;;28.50;99.90;;;;;;4728981;30;20051;-96
2023/08/11 06:37:52;;;;;;;2.92;1.60;;;28.90;99.90;;;;;;4789069;29;20062;-96
2023/08/11 06:40:38;;;;;;;2.90;1.90;;;29.00;97.80;;;;;;4793605;29;20058;-96
2023/08/11 06:43:32;;;;;;;2.17;1.50;;;29.10;99.90;;;;;;4797773;29;20519;-96
2023/08/11 06:47:10;;;;;;;2.47;1.40;;;29.40;94.30;;;;;;4795541;29;20471;-96
2023/08/11 06:50:23;;;;;;;1.92;1.25;;;29.60;91.70;;;;;;4823129;29;20062;-96
2023/08/11 06:53:07;;;;;;;4.15;1.35;;;30.00;96.00;;;;;;4778644;29;20053;-96
2023/08/11 06:55:56;;;;;;;2.78;1.70;;;29.90;94.00;;;;;;4777909;29;20050;-96
2023/08/11 06:58:23;;;;;;;3.35;1.30;;;30.40;91.60;;;;;;4791798;29;20557;-96
2023/08/11 07:01:18;;;;;;;;;;;;;;;;;;;;;
2023/08/11 07:03:51;;;;;;;4.30;1.30;;;30.60;90.70;;;;;;4807323;29;20066;-96
2023/08/11 07:06:41;;;;;;;3.00;1.25;;;30.80;88.50;;;;;;4788968;29;20049;-96
2023/08/11 07:09:51;;;;;;;2.03;1.08;;;30.80;85.50;;;;;;4815788;29;20117;-96
2023/08/11 07:12:53;;;;;;;2.00;1.40;;;31.00;83.30;;;;;;4866689;29;20057;-96
2023/08/11 07:16:32;;;;;;;2.90;1.10;;;31.20;84.30;;;;;;4847148;29;20113;-96
2023/08/11 07:19:04;;;;;;;1.92;1.20;;;31.50;80.00;;;;;;4855164;29;20045;-96
2023/08/11 07:21:46;;;;;;;2.60;1.50;;;31.60;83.10;;;;;;4862261;29;20053;-96
2023/08/11 07:27:39;;;;;;;1.98;1.10;;;31.70;80.10;;;;;;4863392;29;20053;-96
2023/08/11 07:30:19;;;;;;;2.40;1.20;;;31.80;77.60;;;;;;4845935;29;20048;-96
2023/08/11 07:32:51;;;;;;;1.90;0.90;;;32.20;76.90;;;;;;4861316;29;20041;-96
2023/08/11 07:35:26;;;;;;;1.92;1.20;;;32.20;78.60;;;;;;4856625;29;20037;-96
2023/08/11 07:37:59;;;;;;;1.20;0.82;;;32.30;77.60;;;;;;4855902;29;20040;-96
2023/08/11 07:41:17;;;;;;;2.15;1.10;;;32.50;75.80;;;;;;4857034;29;20056;-96
2023/08/11 07:43:51;;;;;;;1.92;1.25;;;32.40;73.20;;;;;;4834605;29;20088;-96
2023/08/11 07:46:41;;;;;;;1.52;1.00;;;32.40;75.30;;;;;;4840589;29;20057;-96
2023/08/11 07:49:15;;;;;;;2.47;1.10;;;32.20;73.20;;;;;;4867161;29;20049;-96
2023/08/11 07:52:05;;;;;;;4.53;1.30;;;32.50;73.40;;;;;;4870536;29;20105;-96
2023/08/11 07:54:36;;;;;;;1.58;1.00;;;32.50;74.10;;;;;;4840276;29;20045;-96
2023/08/11 07:57:08;;;;;;;2.28;0.90;;;32.60;73.50;;;;;;4871812;29;20041;-96
2023/08/11 07:59:53;;;;;;;2.08;1.40;;;32.80;72.50;;;;;;4873688;29;20059;-96
2023/08/11 08:02:48;;;;;;;1.58;1.08;;;32.50;71.70;;;;;;4849401;29;20069;-96
2023/08/11 08:05:24;;;;;;;3.00;0.90;;;33.10;73.30;;;;;;4847813;29;20060;-96
2023/08/11 08:08:05;;;;;;;1.58;1.10;;;33.20;71.90;;;;;;4849437;29;20139;-96
2023/08/11 08:10:54;;;;;;;2.67;1.30;;;33.30;72.20;;;;;;4848902;29;20049;-96
2023/08/11 08:13:20;;;;;;;1.88;1.00;;;33.20;70.80;;;;;;4837703;29;20050;-96
2023/08/11 08:15:49;;;;;;;4.18;1.42;;;33.30;71.90;;;;;;4835947;29;20065;-96
2023/08/11 08:18:15;;;;;;;2.38;1.20;;;33.30;71.30;;;;;;4836623;29;20049;-96
2023/08/11 08:20:43;;;;;;;2.88;1.02;;;33.20;70.70;;;;;;4806149;29;20375;-96
2023/08/11 08:23:09;;;;;;;1.92;0.90;;;33.20;70.40;;;;;;4817314;29;20042;-96
2023/08/11 08:25:35;;;;;;;3.67;0.95;;;33.10;71.00;;;;;;4834157;29;20382;-96
2023/08/11 08:28:06;;;;;;;1.20;0.90;;;33.10;71.30;;;;;;4832762;29;20057;-96
2023/08/11 08:30:33;;;;;;;1.33;1.10;;;33.10;70.80;;;;;;4834165;29;20049;-96
2023/08/11 08:33:17;;;;;;;2.05;1.08;;;33.00;70.10;;;;;;4823876;29;20037;-96
2023/08/11 08:35:43;;;;;;;1.50;1.00;;;33.10;68.90;;;;;;4819446;29;20494;-96
2023/08/11 08:38:18;;;;;;;2.13;1.10;;;33.10;69.70;;;;;;4824692;29;20052;-96
2023/08/11 08:40:44;;;;;;;2.35;1.23;;;33.00;68.50;;;;;;4834099;29;20041;-96
2023/08/11 08:43:11;;;;;;;2.83;1.20;;;32.90;69.40;;;;;;4819581;29;20140;-95
2023/08/11 08:45:43;;;;;;;2.78;1.00;;;32.80;69.10;;;;;;4847782;29;20042;-95
2023/08/11 08:48:33;;;;;;;1.42;0.80;;;32.80;70.00;;;;;;4832867;29;20501;-96
2023/08/11 08:50:59;;;;;;;2.22;0.98;;;32.70;69.30;;;;;;4831849;29;20069;-96
2023/08/11 08:53:26;;;;;;;2.10;0.93;;;32.60;70.50;;;;;;4831324;29;20077;-96
2023/08/11 08:55:52;;;;;;;;;;;32.40;70.50;;;;;;4833420;29;20045;-95
2023/08/11 08:58:21;;;;;;;3.00;1.23;;;32.10;69.70;;;;;;4845891;29;20010;-96
2023/08/11 09:00:47;;;;;;;2.00;1.38;;;32.20;71.30;;;;;;4815552;29;20562;-96
2023/08/11 09:03:13;;;;;;;2.50;1.35;;;32.00;71.80;;;;;;4810618;29;20053;-96
2023/08/11 09:05:39;;;;;;;2.17;1.30;;;31.90;71.40;;;;;;4816034;29;20067;-96
2023/08/11 09:08:05;;;;;;;2.35;1.10;;;31.50;72.10;;;;;;4831665;29;20062;-96
2023/08/11 09:10:36;;;;;;;2.95;1.02;;;31.40;72.80;;;;;;4846709;29;20493;-96
2023/08/11 09:13:05;;;;;;;1.98;1.20;;;31.10;72.60;;;;;;4843993;29;20057;-96
2023/08/11 09:15:33;;;;;;;1.90;1.25;;;30.80;73.70;;;;;;4863694;29;20037;-96
2023/08/11 09:18:08;;;;;;;2.35;1.55;;;30.40;73.30;;;;;;4850371;29;20481;-96
2023/08/11 09:20:36;;;;;;;2.95;1.30;;;30.10;73.50;;;;;;4840827;29;20397;-96
2023/08/11 09:23:06;;;;;;;4.53;1.50;;;29.50;74.20;;;;;;4851774;29;20116;-96
2023/08/11 09:25:32;;;;;;;3.47;1.30;;;29.20;74.00;;;;;;4852057;29;20044;-96
2023/08/11 09:27:58;;;;;;;3.50;1.33;;;29.10;75.30;;;;;;4857751;29;20053;-96
2023/08/11 09:30:31;;;;;;;3.83;1.30;;;29.00;76.80;;;;;;4835651;29;20041;-95
2023/08/11 09:33:05;;;;;;;1.98;1.10;;;28.90;76.80;;;;;;4832443;29;20079;-95
2023/08/11 09:35:33;;;;;;;2.67;1.00;;;28.90;77.70;;;;;;4835245;29;20465;-96
2023/08/11 09:38:00;;;;;;;2.38;1.23;;;28.80;78.20;;;;;;4845325;29;20053;-96
2023/08/11 09:40:26;;;;;;;2.53;1.30;;;28.70;77.00;;;;;;4844253;29;20153;-96
2023/08/11 09:42:55;;;;;;;;;;;28.70;77.40;;;;;;4847035;29;20045;-96
2023/08/11 09:45:22;;;;;;;2.72;1.30;;;28.50;77.60;;;;;;4849062;29;20014;-96
2023/08/11 09:47:48;;;;;;;2.50;1.45;;;28.60;78.40;;;;;;4849454;29;20049;-96
2023/08/11 09:50:16;;;;;;;2.38;1.30;;;28.50;77.90;;;;;;4849116;29;20054;-95
2023/08/11 09:52:43;;;;;;;2.83;1.10;;;28.50;77.70;;;;;;4815914;29;20048;-96
2023/08/11 09:55:13;;;;;;;2.33;1.25;;;28.50;78.00;;;;;;4847742;29;20041;-96
2023/08/11 09:57:43;;;;;;;2.30;1.13;;;28.50;78.90;;;;;;4843412;29;20042;-96
2023/08/11 10:00:16;;;;;;;4.32;1.42;;;28.50;78.30;;;;;;4848463;29;20132;-96
2023/08/11 10:02:59;;;;;;;3.45;1.00;;;28.50;78.70;;;;;;4814946;29;20090;-96
2023/08/11 10:05:26;;;;;;;2.53;1.20;;;28.60;79.90;;;;;;4844955;29;20536;-95
2023/08/11 10:07:57;;;;;;;1.90;0.88;;;28.70;79.50;;;;;;4847562;29;20057;-96
2023/08/11 10:10:27;;;;;;;3.25;1.27;;;28.80;79.50;;;;;;4856124;29;20109;-96
2023/08/11 10:13:08;;;;;;;1.95;1.23;;;28.90;78.80;;;;;;4846513;29;20120;-96
2023/08/11 10:15:35;;;;;;;2.00;1.00;;;28.80;78.90;;;;;;4837658;29;20046;-96
2023/08/11 10:18:05;;;;;;;3.42;1.17;;;28.80;79.40;;;;;;4854690;29;20045;-96
2023/08/11 10:20:32;;;;;;;2.95;1.13;;;29.00;80.70;;;;;;4849523;29;20045;-95
2023/08/11 10:23:01;;;;;;;2.15;1.10;;;29.00;81.30;;;;;;4830919;29;20085;-96
2023/08/11 10:25:30;;;;;;;1.40;0.90;;;29.10;81.50;;;;;;4847674;29;20044;-95
2023/08/11 10:27:57;;;;;;;2.72;0.90;;;29.10;81.40;;;;;;4846516;29;20032;-95
2023/08/11 10:30:25;;;;;;;2.60;1.00;;;29.30;83.40;;;;;;4848327;29;20045;-95
2023/08/11 10:33:14;;;;;;;2.38;1.10;;;29.40;83.90;;;;;;4848306;29;20040;-96
2023/08/11 10:35:48;;;;;;;1.23;0.80;;;29.40;83.40;;;;;;4837723;29;20101;-95
2023/08/11 10:38:24;;;;;;;1.15;0.90;;;29.40;83.30;;;;;;4835661;29;20125;-96
2023/08/11 10:40:50;;;;;;;3.27;0.80;;;29.40;80.90;;;;;;4848076;29;20118;-96
2023/08/11 10:43:35;;;;;;;3.10;0.85;;;29.10;82.50;;;;;;4848382;29;20136;-96
2023/08/11 10:46:23;;;;;;;2.92;1.10;;;28.90;83.70;;;;;;4846927;29;20040;-96
2023/08/11 10:48:54;;;;;;;2.88;1.00;;;28.70;83.20;;;;;;4845675;29;20049;-96
2023/08/11 10:51:44;;;;;;;1.65;1.00;;;28.50;84.50;;;;;;4840516;29;20516;-96
2023/08/11 10:54:17;;;;;;;1.55;0.90;;;28.70;85.80;;;;;;4861249;29;20048;-95
2023/08/11 10:56:45;;;;;;;1.42;0.88;;;28.70;84.90;;;;;;4848497;29;20409;-95
2023/08/11 10:59:27;;;;;;;2.53;1.17;;;28.70;85.90;;;;;;4847826;29;20566;-95
2023/08/11 11:01:54;;;;;;;1.63;0.80;;;28.90;86.90;;;;;;4839987;29;20052;-96
2023/08/11 11:04:26;;;;;;;2.55;0.80;;;29.00;86.80;;;;;;4847407;29;20125;-95
2023/08/11 11:07:27;;;;;;;;;;;;;;;;;;;;;
2023/08/11 11:09:55;;;;;;;1.27;0.80;;;29.30;82.80;;;;;;4848507;29;20045;-95
2023/08/11 11:12:55;;;;;;;1.85;0.80;;;29.30;84.10;;;;;;4842893;29;20453;-95
2023/08/11 11:15:30;;;;;;;1.65;1.00;;;29.40;83.70;;;;;;4858400;29;20053;-96
2023/08/11 11:17:58;;;;;;;1.80;0.90;;;29.40;84.30;;;;;;4843448;29;20053;-95
2023/08/11 11:20:25;;;;;;;1.90;0.90;;;29.50;84.50;;;;;;4846449;29;20053;-94
2023/08/11 11:22:50;;;;;;;3.25;1.20;;;29.50;83.10;;;;;;4819249;29;20049;-93
2023/08/11 11:25:22;;;;;;;1.23;1.07;;;29.50;82.80;;;;;;4813890;29;20138;-86
2023/08/11 11:27:48;;;;;;;1.27;0.88;;;29.50;82.20;;;;;;4817820;29;21140;-86
2023/08/11 11:30:14;;;;;;;1.88;0.90;;;29.60;82.70;;;;;;4819118;29;20037;-84
2023/08/11 11:32:42;;;;;;;1.67;0.90;;;29.60;83.10;;;;;;4825260;29;20489;-85
2023/08/11 11:35:08;;;;;;;2.65;0.88;;;29.60;82.70;;;;;;4818925;29;20037;-83
2023/08/11 11:37:36;;;;;;;2.38;1.02;;;29.60;81.80;;;;;;4824112;29;20048;-83
2023/08/11 11:40:06;;;;;;;1.40;0.90;;;29.40;81.60;;;;;;4855233;29;20455;-84
2023/08/11 11:42:37;;;;;;;1.77;0.90;;;29.40;82.10;;;;;;4809453;29;20044;-85
2023/08/11 11:45:05;;;;;;;1.23;0.98;;;29.20;82.60;;;;;;4838015;29;20113;-85
2023/08/11 11:47:31;;;;;;;2.25;0.98;;;29.10;82.20;;;;;;4836279;29;20045;-85
2023/08/11 11:49:59;;;;;;;2.95;1.13;;;29.20;82.80;;;;;;4827770;29;20049;-92
2023/08/11 11:52:25;;;;;;;3.10;1.05;;;29.30;82.50;;;;;;4846690;29;20045;-92
2023/08/11 11:54:52;;;;;;;2.25;0.90;;;29.50;83.00;;;;;;4828367;29;20893;-93
2023/08/11 11:57:42;;;;;;;1.73;0.90;;;29.30;83.30;;;;;;4838899;29;20057;-95
2023/08/11 12:00:16;;;;;;;2.45;0.85;;;29.20;84.20;;;;;;4842261;29;20667;-93
2023/08/11 12:02:43;;;;;;;3.83;1.05;;;29.10;83.70;;;;;;4831618;29;20146;-91
2023/08/11 12:05:10;;;;;;;1.95;1.00;;;29.10;84.30;;;;;;4840226;29;20139;-92
2023/08/11 12:07:36;;;;;;;2.80;1.02;;;29.20;83.50;;;;;;4842620;29;20045;-94
2023/08/11 12:10:04;;;;;;;1.52;0.90;;;29.20;83.30;;;;;;4845686;29;20132;-93
2023/08/11 12:12:30;;;;;;;2.78;0.85;;;29.20;82.90;;;;;;4861459;29;20036;-96
2023/08/11 12:15:17;;;;;;;2.13;0.95;;;29.10;81.40;;;;;;4855757;29;20055;-93
2023/08/11 12:17:49;;;;;;;1.90;0.90;;;29.00;79.70;;;;;;4841429;29;20573;-94
2023/08/11 12:20:20;;;;;;;2.35;1.02;;;28.90;82.70;;;;;;4847576;29;20513;-95
2023/08/11 12:22:46;;;;;;;2.58;0.90;;;28.90;82.70;;;;;;4845233;29;20056;-96
2023/08/11 12:25:12;;;;;;;4.25;1.08;;;28.70;83.80;;;;;;4838110;29;20545;-94
2023/08/11 12:27:38;;;;;;;2.55;0.98;;;28.70;84.20;;;;;;4855345;29;20051;-96
2023/08/11 12:30:12;;;;;;;2.70;0.93;;;28.70;83.90;;;;;;4846878;29;20097;-95
2023/08/11 12:32:38;;;;;;;1.55;1.10;;;28.60;82.10;;;;;;4821956;29;20085;-95
2023/08/11 12:35:04;;;;;;;1.83;1.10;;;28.60;83.70;;;;;;4849014;29;20091;-95
2023/08/11 12:40:41;;;;;;;3.67;1.27;;;28.50;87.80;;;;;;4859462;29;19930;-94
2023/08/11 12:43:09;;;;;;;3.20;1.02;;;28.50;85.80;;;;;;4844579;29;20052;-95
2023/08/11 12:45:40;;;;;;;2.78;0.90;;;28.40;86.70;;;;;;4836054;29;20037;-95
2023/08/11 12:48:18;;;;;;;1.30;1.00;;;28.40;87.50;;;;;;4848521;29;20044;-89
2023/08/11 12:50:44;;;;;;;2.53;1.00;;;28.40;89.10;;;;;;4825195;29;20117;-96
2023/08/11 12:53:10;;;;;;;2.22;1.08;;;28.40;87.80;;;;;;4834896;29;20140;-94
2023/08/11 12:55:39;;;;;;;6.50;1.35;;;28.40;87.20;;;;;;4843400;29;20037;-95
2023/08/11 12:58:06;;;;;;;2.15;1.00;;;28.30;87.40;;;;;;4849186;29;20596;-94
2023/08/11 13:00:47;;;;;;;1.65;1.00;;;28.30;87.80;;;;;;4852204;29;20052;-96
2023/08/11 13:04:01;;;;;;;4.75;1.00;;;28.30;88.20;;;;;;4851292;29;20097;-94
2023/08/11 13:06:27;;;;;;;2.40;1.27;;;28.20;90.60;;;;;;4820850;29;20061;-92
2023/08/11 13:08:53;;;;;;;2.35;1.00;;;28.20;92.50;;;;;;4824539;29;20537;-87
2023/08/11 13:11:19;;;;;;;1.67;1.03;;;28.20;91.50;;;;;;4848074;29;20096;-89
2023/08/11 13:13:44;;;;;;;2.45;1.00;;;28.20;91.40;;;;;;4828598;29;20477;-88
2023/08/11 13:16:12;;;;;;;4.23;1.03;;;28.20;91.70;;;;;;4845915;29;20057;-89
2023/08/11 13:18:37;;;;;;;2.08;0.90;;;28.10;93.60;;;;;;4831725;29;20470;-88
2023/08/11 13:21:03;;;;;;;2.60;0.97;;;28.00;92.70;;;;;;4815542;29;20080;-89
2023/08/11 13:23:34;;;;;;;1.23;0.80;;;28.00;93.50;;;;;;4846080;29;20096;-91
2023/08/11 13:26:03;;;;;;;2.60;0.77;;;28.00;95.00;;;;;;4840774;29;20384;-88
2023/08/11 13:28:46;;;;;;;3.10;1.05;;;28.00;94.70;;;;;;4862408;29;20041;-89
2023/08/11 13:31:15;;;;;;;3.55;1.10;;;28.00;95.80;;;;;;4834212;29;20041;-87
2023/08/11 13:33:44;;;;;;;4.40;1.10;;;27.90;96.70;;;;;;4846097;29;20037;-87
2023/08/11 13:36:12;;;;;;;1.50;1.00;;;27.90;96.50;;;;;;4850482;29;20499;-87
2023/08/11 13:38:45;;;;;;;1.88;0.90;;;27.90;97.30;;;;;;4846171;29;20151;-90
2023/08/11 13:41:13;;;;;;;2.55;1.00;;;27.90;97.40;;;;;;4856297;29;20096;-89
2023/08/11 13:43:42;;;;;;;2.10;0.80;;;28.00;98.40;;;;;;4861873;29;20038;-90
2023/08/11 13:46:16;;;;;;;1.65;1.05;;;28.10;99.30;;;;;;4845775;29;20049;-88
2023/08/11 13:48:47;;;;;;;1.95;1.02;;;28.10;98.30;;;;;;4863194;29;20397;-89
2023/08/11 13:51:18;;;;;;;3.13;1.20;;;28.00;99.90;;;;;;4847228;29;20381;-89
2023/08/11 13:53:43;;;;;;;1.60;1.00;;;28.00;99.90;;;;;;4843108;29;20466;-88
2023/08/11 13:56:12;;;;;;;2.28;1.10;;;27.90;99.90;;;;;;4849414;29;20042;-88
2023/08/11 13:58:39;;;;;;;1.58;1.10;;;27.80;99.90;;;;;;4851227;29;20124;-89
2023/08/11 14:01:05;;;;;;;1.50;0.90;;;27.80;99.90;;;;;;4843163;29;20084;-87
2023/08/11 14:03:35;;;;;;;1.58;0.98;;;27.90;99.90;;;;;;4842885;29;20053;-90
2023/08/11 14:06:01;;;;;;;1.85;1.27;;;27.90;99.90;;;;;;4834653;29;20060;-88
2023/08/11 14:11:53;;;;;;;3.38;0.90;;;27.80;99.90;;;;;;4839076;29;20052;-87
2023/08/11 14:14:20;;;;;;;1.92;1.15;;;27.80;99.90;;;;;;4847072;29;20057;-87
2023/08/11 14:16:51;;;;;;;1.73;1.02;;;27.80;99.90;;;;;;4826061;29;20110;-86
2023/08/11 14:19:17;;;;;;;2.30;0.80;;;27.80;99.90;;;;;;4837917;29;20045;-90
2023/08/11 14:21:43;;;;;;;2.80;1.17;;;27.90;99.90;;;;;;4831413;29;20327;-87
2023/08/11 14:24:08;;;;;;;3.73;1.40;;;27.80;99.90;;;;;;4813613;29;20102;-88
2023/08/11 14:26:34;;;;;;;2.23;0.93;;;27.80;99.90;;;;;;4845013;29;20519;-89
2023/08/11 14:29:01;;;;;;;3.80;1.43;;;27.80;99.90;;;;;;4816696;29;20043;-90
2023/08/11 14:31:27;;;;;;;2.65;1.25;;;27.70;99.90;;;;;;4855555;29;20045;-87
2023/08/11 14:33:52;;;;;;;3.37;1.10;;;27.70;99.90;;;;;;4825163;29;20038;-88
2023/08/11 14:36:18;;;;;;;1.80;1.03;;;27.60;99.90;;;;;;4828048;29;20049;-88
2023/08/11 14:38:44;;;;;;;3.13;1.17;;;27.50;99.90;;;;;;4832554;29;20034;-88
2023/08/11 14:41:09;;;;;;;2.37;1.20;;;27.50;99.90;;;;;;4824908;29;20033;-88
2023/08/11 14:43:35;;;;;;;1.70;1.10;;;27.50;99.90;;;;;;4834296;29;20049;-89
2023/08/11 14:46:01;;;;;;;6.27;1.23;;;27.50;99.90;;;;;;4818140;29;20041;-90
2023/08/11 14:48:27;;;;;;;2.13;1.25;;;27.50;99.90;;;;;;4846318;29;20052;-88
2023/08/11 14:50:53;;;;;;;2.70;1.30;;;27.50;99.90;;;;;;4814495;29;20041;-91
2023/08/11 14:53:23;;;;;;;3.80;1.50;;;27.50;99.90;;;;;;4829216;29;20559;-91
2023/08/11 14:55:49;;;;;;;1.50;1.20;;;27.50;99.90;;;;;;4826694;29;20577;-91
2023/08/11 14:58:15;;;;;;;1.80;1.13;;;27.40;99.90;;;;;;4844524;29;20041;-89
2023/08/11 15:00:41;;;;;;;1.25;1.15;;;27.40;99.90;;;;;;4832472;29;20405;-90
2023/08/11 15:03:10;;;;;;;1.40;1.15;;;27.40;99.90;;;;;;4857704;29;20037;-87
2023/08/11 15:05:36;;;;;;;4.35;1.27;;;27.50;99.90;;;;;;4830990;29;20516;-89
2023/08/11 15:08:02;;;;;;;2.20;1.00;;;27.50;99.90;;;;;;4831382;29;20045;-88
2023/08/11 15:10:28;;;;;;;2.27;1.13;;;27.50;99.90;;;;;;4816187;29;20045;-88
2023/08/11 15:12:53;;;;;;;1.90;0.80;;;27.50;99.90;;;;;;4828584;29;20473;-89
2023/08/11 15:15:19;;;;;;;4.30;1.60;;;27.50;99.90;;;;;;4813596;29;20080;-89
2023/08/11 15:17:45;;;;;;;2.28;1.10;;;27.40;99.90;;;;;;4828545;29;20040;-88
2023/08/11 15:20:11;;;;;;;2.50;1.30;;;27.40;99.90;;;;;;4826039;29;20041;-88
2023/08/11 15:22:37;;;;;;;1.85;1.00;;;27.40;99.90;;;;;;4809717;29;20085;-91
2023/08/11 15:25:04;;;;;;;1.58;1.02;;;27.40;99.90;;;;;;4826464;29;20041;-90
2023/08/11 15:27:35;;;;;;;3.35;1.15;;;27.30;99.90;;;;;;4843785;29;20129;-89
2023/08/11 15:30:03;;;;;;;2.22;1.30;;;27.30;99.90;;;;;;4822398;29;20045;-91
2023/08/11 15:32:28;;;;;;;4.20;1.50;;;27.10;99.90;;;;;;4844512;29;20317;-87
2023/08/11 15:34:54;;;;;;;1.63;1.20;;;27.20;99.90;;;;;;4814619;29;20128;-88
2023/08/11 15:37:20;;;;;;;1.57;1.20;;;27.10;99.90;;;;;;4809056;29;20046;-89
2023/08/11 15:39:46;;;;;;;2.13;1.30;;;27.00;99.90;;;;;;4854531;29;20126;-91
2023/08/11 15:42:23;;;;;;;2.13;1.40;;;26.90;99.90;;;;;;4815677;29;20482;-89
2023/08/11 15:44:49;;;;;;;2.03;1.10;;;26.80;99.90;;;;;;4859751;29;20083;-89
2023/08/11 15:47:24;;;;;;;1.43;1.17;;;26.70;99.90;;;;;;4831319;29;20045;-92
2023/08/11 15:50:02;;;;;;;;;;;26.70;99.90;;;;;;4833571;29;20491;-90
2023/08/11 15:52:28;;;;;;;2.42;1.20;;;26.50;99.90;;;;;;4831446;29;19927;-90
2023/08/11 15:55:11;;;;;;;3.57;1.27;;;26.50;99.90;;;;;;4840417;29;20038;-96
2023/08/11 15:58:17;;;;;;;3.10;1.42;;;26.60;99.90;;;;;;4850290;29;20046;-96
2023/08/11 16:01:45;;;;;;;1.65;1.40;;;26.40;99.90;;;;;;4843904;29;20080;-96
2023/08/11 16:04:26;;;;;;;3.75;1.10;;;26.70;99.90;;;;;;4840225;29;20050;-96
2023/08/11 16:07:34;;;;;;;1.58;1.10;;;26.70;99.90;;;;;;4860835;29;20560;-96
2023/08/11 16:10:27;;;;;;;1.80;1.20;;;26.70;99.90;;;;;;4837319;29;20048;-96
2023/08/11 16:13:42;;;;;;;;;;;;;;;;;;;;;
2023/08/11 16:17:17;;;;;;;2.60;1.40;;;26.70;99.90;;;;;;4832943;29;20067;-96
2023/08/11 16:20:07;;;;;;;2.75;1.40;;;26.60;99.90;;;;;;4850907;29;20113;-96
2023/08/11 16:23:13;;;;;;;4.35;1.30;;;26.50;99.90;;;;;;4880867;29;20116;-96
2023/08/11 16:25:52;;;;;;;1.63;1.40;;;26.50;99.90;;;;;;4850911;29;20053;-96
2023/08/11 16:32:25;;;;;;;1.60;1.20;;;26.50;99.90;;;;;;4795019;29;20102;-96
2023/08/11 16:42:22;;;;;;;2.20;1.20;;;26.20;99.90;;;;;;4754939;30;19926;-96
2023/08/11 16:57:34;;;;;;;4.30;2.00;;;25.70;99.90;;;;;;4582955;31;20057;-96
2023/08/11 17:00:00;;;;;;;2.92;2.10;;;25.60;99.90;;;;;;4611461;30;20068;-86
2023/08/11 17:02:25;;;;;;;3.67;2.57;;;25.50;99.90;;;;;;4736343;30;20412;-86